Time;durP1;ratioP1;P1;durP2;ratioP2;P2;SDS_P1;SDS_P2;PMS_P1;PMS_P2;Temp;Humidity;BMP_temperature;BMP_pressure;BME280_temperature;BME280_humidity;BME280_pressure;Samples;Min_cycle;Max_cycle;Signal;HPM_P1;HPM_P2
2023/02/20 08:36:38;;;;;;;6.90;2.50;;;;;;;11.65;59.20;97617.50;2090452;28;20545;-57
2023/02/20 08:37:40;;;;;;;13.25;2.78;;;;;;;11.48;59.26;97608.44;2091157;28;20192;-57
2023/02/20 08:38:42;;;;;;;9.77;2.60;;;;;;;11.54;58.88;97605.63;2090017;28;20188;-58
2023/02/20 08:39:43;;;;;;;10.30;3.10;;;;;;;11.49;58.89;97604.94;2084443;28;20655;-57
2023/02/20 08:40:44;;;;;;;14.32;3.03;;;;;;;11.01;59.83;97600.34;2082461;28;20575;-57
2023/02/20 08:41:46;;;;;;;9.57;3.40;;;;;;;11.27;59.91;97608.25;2095052;28;20205;-58
2023/02/20 08:42:49;;;;;;;10.60;3.00;;;;;;;11.40;59.60;97600.84;2087178;28;20640;-58
2023/02/20 08:43:50;;;;;;;7.95;2.60;;;;;;;11.60;59.03;97599.31;2085199;28;20211;-58
2023/02/20 08:44:52;;;;;;;8.68;2.42;;;;;;;11.81;58.43;97597.75;2086492;28;20542;-56
2023/02/20 08:45:53;;;;;;;7.95;2.53;;;;;;;12.83;56.60;97603.72;2086472;28;20219;-56
2023/02/20 08:46:55;;;;;;;7.55;3.00;;;;;;;12.43;56.84;97595.59;2086789;28;20200;-57
2023/02/20 08:48:00;;;;;;;4.20;2.22;;;;;;;12.36;56.86;97594.09;2086358;28;20232;-57
2023/02/20 08:49:02;;;;;;;12.30;2.20;;;;;;;12.58;56.86;97602.00;2083422;28;20220;-57
2023/02/20 08:50:04;;;;;;;10.25;2.95;;;;;;;12.70;56.57;97598.09;2084603;28;20540;-57
2023/02/20 08:51:06;;;;;;;11.52;3.10;;;;;;;12.80;56.48;97611.66;2086906;28;20196;-56
2023/02/20 08:52:07;;;;;;;9.18;2.75;;;;;;;13.06;55.41;97598.44;2086120;28;20229;-57
2023/02/20 08:53:09;;;;;;;6.38;2.05;;;;;;;13.53;54.30;97605.31;2086143;28;20196;-56
2023/02/20 08:54:12;;;;;;;11.15;2.72;;;;;;;13.65;53.28;97598.69;2083556;28;20217;-56
2023/02/20 08:55:13;;;;;;;7.63;2.15;;;;;;;13.21;54.21;97596.94;2083411;28;20208;-57
2023/02/20 08:56:18;;;;;;;8.90;2.50;;;;;;;13.02;54.69;97603.84;2085362;28;20549;-56
2023/02/20 08:57:19;;;;;;;8.88;2.50;;;;;;;13.54;53.70;97596.50;2084831;28;20342;-57
2023/02/20 08:58:23;;;;;;;7.95;2.33;;;;;;;14.24;52.46;97595.34;2085465;28;20196;-57
2023/02/20 08:59:24;;;;;;;10.40;1.77;;;;;;;14.96;50.93;97596.47;2083224;28;20269;-57
2023/02/20 09:00:27;;;;;;;11.52;3.03;;;;;;;14.90;51.15;97600.22;2084799;28;20200;-57
2023/02/20 09:01:28;;;;;;;7.53;2.40;;;;;;;13.92;51.98;97593.19;2083836;28;20249;-57
2023/02/20 09:02:30;;;;;;;5.60;2.40;;;;;;;14.12;52.16;97596.72;2084107;28;20265;-65
2023/02/20 09:03:33;;;;;;;8.65;2.45;;;;;;;13.99;52.66;97596.41;2083868;28;20200;-65
2023/02/20 09:04:35;;;;;;;7.63;2.60;;;;;;;13.35;53.21;97590.28;2082627;28;20225;-66
2023/02/20 09:05:36;;;;;;;10.07;2.67;;;;;;;13.61;53.04;97604.13;2086426;28;20197;-65
2023/02/20 09:06:39;;;;;;;6.05;2.22;;;;;;;14.43;51.41;97592.75;2085354;28;20559;-66
2023/02/20 09:07:41;;;;;;;11.45;3.30;;;;;;;13.44;52.91;97591.72;2084929;28;20200;-65
2023/02/20 09:08:42;;;;;;;9.82;2.13;;;;;;;13.33;54.65;97600.84;2082885;28;20228;-65
2023/02/20 09:09:44;;;;;;;6.35;2.25;;;;;;;14.32;52.31;97593.22;2083314;28;20260;-65
2023/02/20 09:10:45;;;;;;;8.80;2.50;;;;;;;14.88;50.78;97588.09;2083961;28;20910;-66
2023/02/20 09:11:47;;;;;;;7.05;3.25;;;;;;;15.08;50.73;97595.03;2086213;28;20231;-66
2023/02/20 09:12:48;;;;;;;8.25;2.47;;;;;;;16.06;48.52;97586.69;2084662;28;20204;-66
2023/02/20 09:13:50;;;;;;;6.25;2.20;;;;;;;16.00;47.58;97589.66;2082445;28;20295;-66
2023/02/20 09:14:51;;;;;;;6.75;1.90;;;;;;;15.95;48.06;97591.66;2084599;28;20205;-66
2023/02/20 09:15:53;;;;;;;6.80;2.17;;;;;;;15.96;47.78;97591.59;2085564;28;20197;-66
2023/02/20 09:16:54;;;;;;;8.20;2.60;;;;;;;15.80;47.95;97590.63;2086806;28;20205;-66
2023/02/20 09:17:56;;;;;;;10.15;2.60;;;;;;;15.12;49.73;97588.69;2086300;28;20196;-66
2023/02/20 09:18:59;;;;;;;5.07;2.33;;;;;;;15.21;49.35;97585.63;2084423;28;20667;-66
2023/02/20 09:20:00;;;;;;;8.70;3.10;;;;;;;15.27;50.14;97592.38;2085163;28;20220;-66
2023/02/20 09:21:02;;;;;;;5.32;2.15;;;;;;;15.40;49.74;97580.31;2086427;28;20196;-66
2023/02/20 09:22:03;;;;;;;11.27;3.33;;;;;;;15.40;49.31;97584.72;2085585;28;20647;-66
2023/02/20 09:23:05;;;;;;;9.10;2.80;;;;;;;14.64;50.43;97585.63;2086545;28;20207;-66
2023/02/20 09:24:07;;;;;;;9.88;2.33;;;;;;;15.43;49.93;97584.59;2085222;28;20221;-66
2023/02/20 09:25:10;;;;;;;5.43;2.45;;;;;;;16.52;47.54;97580.78;2085814;28;20197;-66
2023/02/20 09:26:12;;;;;;;6.07;2.40;;;;;;;16.87;46.17;97585.03;2086813;28;20204;-66
2023/02/20 09:27:14;;;;;;;7.25;1.80;;;;;;;16.70;46.44;97586.81;2086123;28;20197;-66
2023/02/20 09:28:15;;;;;;;9.48;2.40;;;;;;;16.33;46.65;97588.81;2085347;28;20213;-67
2023/02/20 09:29:17;;;;;;;8.68;2.20;;;;;;;17.93;44.49;97583.44;2084394;28;20236;-67
2023/02/20 09:30:19;;;;;;;6.50;2.40;;;;;;;16.72;45.47;97584.09;2085437;28;20285;-67
2023/02/20 09:31:21;;;;;;;11.25;1.95;;;;;;;16.24;46.52;97581.38;2085941;28;20354;-66
2023/02/20 09:32:22;;;;;;;7.22;1.90;;;;;;;16.60;46.40;97585.63;2083334;28;20268;-66
2023/02/20 09:33:24;;;;;;;13.57;1.98;;;;;;;16.24;46.07;97584.00;2084130;28;20204;-66
2023/02/20 09:34:25;;;;;;;8.43;2.13;;;;;;;16.43;45.80;97576.84;2077416;28;20253;-66
2023/02/20 09:35:29;;;;;;;7.63;2.20;;;;;;;16.37;45.90;97577.16;2076659;28;20208;-67
2023/02/20 09:36:30;;;;;;;7.43;2.28;;;;;;;16.21;46.30;97578.91;2077311;28;20271;-67
2023/02/20 09:37:31;;;;;;;11.18;2.05;;;;;;;16.60;45.61;97567.16;2077373;28;20277;-67
2023/02/20 09:38:33;;;;;;;9.77;2.25;;;;;;;16.41;46.37;97573.44;2077001;28;20198;-67
2023/02/20 09:39:35;;;;;;;7.82;1.80;;;;;;;16.95;45.41;97569.66;2077827;28;20252;-66
2023/02/20 09:40:37;;;;;;;7.03;2.38;;;;;;;16.72;45.21;97569.16;2077769;28;20198;-66
2023/02/20 09:42:04;;;;;;;7.65;2.28;;;;;;;16.23;46.64;97577.06;2078048;28;20348;-66
2023/02/20 09:43:24;;;;;;;8.23;2.65;;;;;;;15.46;47.71;97573.88;2077715;28;20236;-67
2023/02/20 09:44:38;;;;;;;8.27;1.90;;;;;;;13.98;50.69;97571.06;2075869;28;20222;-67
2023/02/20 09:46:08;;;;;;;6.50;1.42;;;;;;;13.29;52.21;97577.44;2076787;28;20208;-66
2023/02/20 09:47:24;;;;;;;11.20;2.38;;;;;;;12.40;54.05;97575.59;2073949;28;20619;-66
2023/02/20 09:48:44;;;;;;;8.73;2.20;;;;;;;13.04;53.88;97573.19;2067770;28;20642;-66
2023/02/20 09:49:46;;;;;;;8.45;2.20;;;;;;;13.04;54.31;97567.94;2072550;28;20229;-66
2023/02/20 09:50:56;;;;;;;14.75;2.63;;;;;;;12.88;53.93;97573.75;2072448;28;20236;-66
2023/02/20 09:52:08;;;;;;;4.35;1.73;;;;;;;12.74;55.08;97568.22;2073108;28;20225;-66
2023/02/20 09:53:23;;;;;;;8.70;2.30;;;;;;;11.73;56.91;97555.28;2072138;28;20221;-66
2023/02/20 09:54:35;;;;;;;11.40;2.30;;;;;;;11.31;58.69;97568.91;2071475;28;20245;-66
2023/02/20 09:55:39;;;;;;;9.80;2.50;;;;;;;11.24;59.63;97565.66;2070038;28;20247;-66
2023/02/20 09:56:47;;;;;;;14.02;2.40;;;;;;;11.05;59.38;97558.41;2069952;28;20297;-66
2023/02/20 09:57:52;;;;;;;4.88;2.00;;;;;;;11.01;59.35;97572.47;2068746;28;20233;-66
2023/02/20 09:59:06;;;;;;;10.80;2.50;;;;;;;11.01;59.78;97566.38;2071721;28;20198;-66
2023/02/20 10:00:23;;;;;;;6.53;2.30;;;;;;;11.57;58.53;97568.88;2070608;28;20198;-66
2023/02/20 10:01:25;;;;;;;8.93;2.30;;;;;;;12.42;56.39;97546.72;2072013;28;20233;-66
2023/02/20 10:02:33;;;;;;;6.15;2.20;;;;;;;12.75;55.22;97535.88;2070406;28;20289;-66
2023/02/20 10:03:43;;;;;;;7.55;1.77;;;;;;;12.95;55.06;97553.44;2070993;28;20201;-66
2023/02/20 10:04:50;;;;;;;10.65;2.60;;;;;;;14.35;52.35;97551.88;2070821;28;20293;-66
2023/02/20 10:06:14;;;;;;;12.65;2.67;;;;;;;16.37;48.35;97544.69;2080095;28;20196;-66
2023/02/20 10:07:28;;;;;;;10.20;2.53;;;;;;;17.02;46.61;97546.44;2076341;28;20200;-66
2023/02/20 10:08:29;;;;;;;7.85;2.10;;;;;;;17.02;46.00;97539.38;2072222;28;20247;-66
2023/02/20 10:09:31;;;;;;;9.32;2.20;;;;;;;16.93;45.45;97542.53;2070929;28;20734;-66
2023/02/20 10:10:37;;;;;;;12.93;2.15;;;;;;;17.23;45.26;97541.72;2072189;28;20259;-66
2023/02/20 10:12:04;;;;;;;6.07;2.30;;;;;;;18.03;43.93;97537.06;2071253;28;20221;-66
2023/02/20 10:13:17;;;;;;;7.45;2.15;;;;;;;17.92;43.64;97540.28;2071172;28;20201;-66
2023/02/20 10:14:54;;;;;;;5.40;1.52;;;;;;;17.58;44.60;97534.38;2071672;28;20606;-66
2023/02/20 10:16:01;;;;;;;12.38;1.98;;;;;;;18.09;43.01;97535.81;2079907;28;20691;-66
2023/02/20 10:17:19;;;;;;;8.00;2.25;;;;;;;16.97;45.27;97539.63;2079515;28;20216;-66
2023/02/20 10:18:39;;;;;;;4.28;1.60;;;;;;;16.38;46.40;97541.09;2070646;28;20194;-66
2023/02/20 10:20:23;;;;;;;7.85;2.15;;;;;;;15.65;47.67;97536.97;2070869;28;20221;-66
2023/02/20 10:21:55;;;;;;;9.32;2.20;;;;;;;16.24;47.20;97532.19;2064303;28;20720;-66
2023/02/20 10:23:09;;;;;;;5.93;1.40;;;;;;;17.51;45.10;97527.78;2071282;28;20234;-66
2023/02/20 10:24:25;;;;;;;7.82;1.73;;;;;;;18.13;43.67;97528.56;2071024;28;20245;-66
2023/02/20 10:25:33;;;;;;;5.22;1.85;;;;;;;16.49;45.23;97536.97;2072232;28;20657;-66
2023/02/20 10:26:43;;;;;;;5.47;1.80;;;;;;;15.79;47.42;97533.63;2071967;28;20198;-66
2023/02/20 10:27:52;;;;;;;4.82;1.73;;;;;;;17.77;43.74;97530.66;2071628;28;20207;-66
2023/02/20 10:29:00;;;;;;;7.50;1.75;;;;;;;17.90;43.29;97533.41;2067951;28;20630;-66
2023/02/20 10:30:05;;;;;;;8.65;1.65;;;;;;;17.04;44.46;97534.00;2071098;28;20264;-66
2023/02/20 10:31:35;;;;;;;7.05;1.55;;;;;;;17.34;44.00;97539.31;2071574;28;20687;-66
2023/02/20 10:32:42;;;;;;;9.30;1.90;;;;;;;17.06;44.46;97540.06;2068475;28;20206;-66
2023/02/20 10:34:04;;;;;;;9.18;1.83;;;;;;;17.78;43.81;97532.38;2067887;28;20209;-65
2023/02/20 10:35:11;;;;;;;4.28;1.65;;;;;;;18.79;42.12;97532.34;2071435;28;20229;-66
2023/02/20 10:37:01;;;;;;;8.00;2.22;;;;;;;18.81;41.94;97530.47;2071281;28;20240;-66
2023/02/20 10:38:10;;;;;;;7.25;1.67;;;;;;;17.30;44.54;97537.78;2066530;28;20229;-66
2023/02/20 10:39:14;;;;;;;7.28;2.28;;;;;;;17.65;43.68;97534.03;2071298;28;20228;-66
2023/02/20 10:40:23;;;;;;;5.47;1.83;;;;;;;18.11;43.23;97526.84;2072197;28;20668;-66
2023/02/20 10:41:32;;;;;;;4.13;1.80;;;;;;;18.18;42.68;97524.69;2071539;28;20260;-66
2023/02/20 10:42:37;;;;;;;6.97;1.70;;;;;;;18.08;42.73;97526.19;2070427;28;20232;-66
2023/02/20 10:43:49;;;;;;;4.22;1.70;;;;;;;19.32;40.70;97524.53;2070979;28;20198;-66
2023/02/20 10:44:56;;;;;;;4.25;1.42;;;;;;;19.71;40.18;97521.97;2068666;28;20530;-66
2023/02/20 10:46:09;;;;;;;6.68;1.45;;;;;;;19.53;40.09;97522.25;2070992;28;20239;-66
2023/02/20 10:47:26;;;;;;;4.80;2.10;;;;;;;18.15;42.13;97521.38;2070559;28;20194;-66
2023/02/20 10:48:30;;;;;;;4.40;1.70;;;;;;;17.82;42.72;97522.47;2071520;28;20201;-66
2023/02/20 10:49:43;;;;;;;4.22;1.52;;;;;;;17.42;43.77;97515.97;2070352;28;20218;-66
2023/02/20 10:50:47;;;;;;;7.95;1.75;;;;;;;18.92;41.79;97525.34;2070592;28;20317;-66
2023/02/20 10:51:54;;;;;;;9.93;2.17;;;;;;;19.71;40.27;97519.31;2070965;28;20194;-66
2023/02/20 10:53:06;;;;;;;6.78;1.70;;;;;;;20.20;39.47;97528.34;2071671;28;20205;-66
2023/02/20 10:54:41;;;;;;;5.35;1.90;;;;;;;20.30;38.78;97518.81;2067324;28;20221;-67
2023/02/20 10:55:49;;;;;;;6.10;1.27;;;;;;;20.71;38.20;97514.22;2069042;28;20206;-68
2023/02/20 10:56:59;;;;;;;13.73;2.00;;;;;;;21.13;37.65;97509.38;2069251;28;20296;-68
2023/02/20 10:58:03;;;;;;;3.88;1.50;;;;;;;22.04;36.13;97514.94;2068957;28;20281;-68
2023/02/20 10:59:46;;;;;;;6.63;1.80;;;;;;;22.04;35.93;97509.63;2070195;28;20685;-66
2023/02/20 11:00:57;;;;;;;5.75;1.90;;;;;;;20.04;38.31;97512.69;2071549;28;20224;-69
2023/02/20 11:02:02;;;;;;;5.93;1.50;;;;;;;19.65;39.47;97520.56;2070711;28;20241;-68
2023/02/20 11:03:15;;;;;;;7.45;1.40;;;;;;;19.60;39.27;97517.38;2071183;28;20198;-68
2023/02/20 11:04:25;;;;;;;5.07;1.48;;;;;;;20.16;38.70;97506.53;2070874;28;20213;-68
2023/02/20 11:05:32;;;;;;;6.70;2.22;;;;;;;20.46;38.41;97520.38;2071130;28;20650;-69
2023/02/20 11:07:00;;;;;;;2.95;1.40;;;;;;;20.91;38.13;97518.03;2071332;28;20201;-69
2023/02/20 11:08:03;;;;;;;6.90;1.45;;;;;;;21.53;36.90;97510.81;2067507;28;20201;-69
2023/02/20 11:09:04;;;;;;;6.57;1.83;;;;;;;21.96;36.70;97520.84;2069430;28;20229;-68
2023/02/20 11:10:06;;;;;;;6.95;1.77;;;;;;;20.79;37.08;97514.47;2069339;28;20208;-68
2023/02/20 11:11:22;;;;;;;11.48;1.65;;;;;;;20.47;38.01;97519.44;2071405;28;20214;-68
2023/02/20 11:12:35;;;;;;;3.20;1.15;;;;;;;20.06;38.22;97516.06;2069974;28;20571;-68
2023/02/20 11:13:37;;;;;;;5.75;1.38;;;;;;;20.11;38.50;97513.09;2070061;28;20210;-67
2023/02/20 11:14:38;;;;;;;4.47;1.60;;;;;;;20.14;38.69;97512.91;2070979;28;20264;-68
2023/02/20 11:15:43;;;;;;;6.68;1.40;;;;;;;20.11;38.39;97505.16;2071884;28;20194;-68
2023/02/20 11:16:54;;;;;;;4.50;1.30;;;;;;;19.98;38.97;97505.16;2071664;28;20191;-68
2023/02/20 11:17:58;;;;;;;4.05;1.00;;;;;;;19.92;38.47;97509.06;2071263;28;20214;-68
2023/02/20 11:19:05;;;;;;;3.65;1.15;;;;;;;19.42;39.26;97498.28;2071087;28;20285;-68
2023/02/20 11:20:37;;;;;;;4.15;1.45;;;;;;;20.01;38.42;97503.16;2072032;28;20205;-68
2023/02/20 11:21:43;;;;;;;7.22;2.65;;;;;;;19.95;38.38;97500.06;2069546;28;20233;-68
2023/02/20 11:22:48;;;;;;;6.35;1.30;;;;;;;20.61;37.87;97487.44;2070740;28;20872;-68
2023/02/20 11:23:49;;;;;;;6.57;1.42;;;;;;;21.18;37.27;97488.63;2070018;28;20248;-68
2023/02/20 11:24:50;;;;;;;2.42;1.10;;;;;;;21.01;36.78;97492.53;2071209;28;20200;-59
2023/02/20 11:25:52;;;;;;;3.95;1.20;;;;;;;20.81;37.36;97485.16;2072170;28;20217;-60
2023/02/20 11:26:58;;;;;;;3.08;1.20;;;;;;;20.55;36.20;97491.38;2071986;28;20684;-59
2023/02/20 11:28:26;;;;;;;2.65;1.00;;;;;;;20.23;36.57;97493.69;2069740;28;20225;-60
2023/02/20 11:29:36;;;;;;;6.07;1.45;;;;;;;20.12;36.04;97485.66;2069820;28;20700;-60
2023/02/20 11:30:41;;;;;;;7.45;1.80;;;;;;;20.63;36.07;97477.59;2071677;28;20723;-59
2023/02/20 11:31:43;;;;;;;2.45;0.90;;;;;;;20.36;36.59;97488.34;2072197;28;20202;-59
2023/02/20 11:32:46;;;;;;;3.22;1.30;;;;;;;20.61;35.78;97476.84;2071711;28;20668;-60
2023/02/20 11:33:49;;;;;;;8.98;1.77;;;;;;;21.18;35.83;97487.78;2070453;28;20205;-60
2023/02/20 11:35:13;;;;;;;3.67;1.13;;;;;;;21.13;35.06;97479.31;2070802;28;20925;-60
2023/02/20 11:36:22;;;;;;;4.35;1.08;;;;;;;20.57;35.81;97472.72;2070305;28;20602;-60
2023/02/20 11:37:24;;;;;;;2.72;0.90;;;;;;;20.90;35.38;97476.56;2070986;28;20201;-60
2023/02/20 11:38:29;;;;;;;5.10;1.00;;;;;;;21.03;35.69;97471.19;2071641;28;20213;-60
2023/02/20 11:39:32;;;;;;;7.25;0.98;;;;;;;21.60;34.56;97461.63;2071315;28;20340;-60
2023/02/20 11:40:34;;;;;;;2.92;1.10;;;;;;;21.06;34.46;97467.44;2071444;28;20205;-60
2023/02/20 11:41:37;;;;;;;3.25;1.08;;;;;;;20.94;34.34;97454.13;2070869;28;20212;-59
2023/02/20 11:42:38;;;;;;;6.15;1.30;;;;;;;19.83;35.36;97465.53;2070863;28;20308;-59
2023/02/20 11:43:47;;;;;;;3.97;1.02;;;;;;;18.91;36.37;97470.72;2070475;28;20198;-60
2023/02/20 11:45:14;;;;;;;2.55;1.00;;;;;;;19.09;36.83;97467.81;2071183;28;20222;-59
2023/02/20 11:46:20;;;;;;;5.00;1.35;;;;;;;19.72;35.71;97476.81;2071470;28;20212;-59
2023/02/20 11:47:27;;;;;;;4.22;1.30;;;;;;;19.62;35.77;97465.16;2071885;28;20197;-59
2023/02/20 11:48:29;;;;;;;1.80;0.93;;;;;;;21.01;35.46;97458.03;2071736;28;20224;-59
2023/02/20 11:49:30;;;;;;;6.40;1.17;;;;;;;21.21;34.80;97455.69;2071079;28;20228;-60
2023/02/20 11:50:42;;;;;;;3.63;1.30;;;;;;;21.09;35.07;97453.94;2070125;28;20617;-60
2023/02/20 11:51:47;;;;;;;3.50;1.00;;;;;;;21.51;34.83;97447.19;2069772;28;20216;-60
2023/02/20 11:53:04;;;;;;;3.30;1.05;;;;;;;19.82;35.94;97452.34;2070341;28;20240;-59
2023/02/20 11:54:07;;;;;;;2.88;0.93;;;;;;;19.10;36.68;97440.41;2070428;28;20755;-59
2023/02/20 11:55:21;;;;;;;3.28;0.93;;;;;;;19.09;36.69;97449.28;2071189;28;20202;-59
2023/02/20 11:56:23;;;;;;;5.00;1.45;;;;;;;18.13;37.98;97444.81;2069996;28;20296;-60
2023/02/20 11:57:28;;;;;;;5.15;0.90;;;;;;;18.63;37.97;97439.03;2070729;28;20197;-59
2023/02/20 11:58:30;;;;;;;2.70;1.00;;;;;;;18.99;37.23;97429.69;2067993;28;20220;-59
2023/02/20 11:59:39;;;;;;;3.25;0.90;;;;;;;18.88;37.03;97438.28;2068116;28;21245;-59
2023/02/20 12:00:48;;;;;;;4.43;1.00;;;;;;;19.02;36.80;97409.16;2071649;28;20229;-60
2023/02/20 12:01:50;;;;;;;4.25;1.05;;;;;;;19.70;36.48;97424.91;2069455;28;20198;-59
2023/02/20 12:03:07;;;;;;;1.83;0.90;;;;;;;19.14;36.45;97433.94;2069756;28;20194;-59
2023/02/20 12:04:19;;;;;;;6.65;1.00;;;;;;;19.05;35.80;97427.47;2069684;28;20232;-59
2023/02/20 12:05:36;;;;;;;3.83;1.00;;;;;;;17.92;37.21;97417.94;2070662;28;20786;-59
2023/02/20 12:06:41;;;;;;;5.22;0.90;;;;;;;18.27;37.57;97426.31;2070191;28;20633;-59
2023/02/20 12:07:51;;;;;;;2.50;0.95;;;;;;;18.99;37.64;97419.94;2070725;28;20511;-67
2023/02/20 12:08:55;;;;;;;4.63;0.93;;;;;;;18.38;37.63;97424.78;2070452;28;20202;-67
2023/02/20 12:10:01;;;;;;;2.35;1.00;;;;;;;19.08;37.25;97421.13;2071418;28;20321;-67
2023/02/20 12:11:11;;;;;;;3.42;1.10;;;;;;;19.19;35.77;97418.59;2070804;28;20285;-68
2023/02/20 12:12:13;;;;;;;6.40;1.58;;;;;;;18.71;36.44;97415.59;2070876;28;20232;-68
2023/02/20 12:13:16;;;;;;;7.40;2.08;;;;;;;19.46;36.14;97416.84;2071118;28;20198;-67
2023/02/20 12:14:19;;;;;;;3.72;1.10;;;;;;;19.42;37.16;97422.34;2069921;28;20324;-68
2023/02/20 12:15:24;;;;;;;4.00;1.30;;;;;;;19.16;37.94;97423.25;2070584;28;20715;-68
2023/02/20 12:16:42;;;;;;;4.65;1.50;;;;;;;20.22;36.70;97415.09;2069201;28;20193;-68
2023/02/20 12:18:04;;;;;;;6.07;0.90;;;;;;;20.77;36.32;97420.84;2070106;28;20201;-68
2023/02/20 12:19:44;;;;;;;3.60;1.30;;;;;;;20.56;35.69;97412.66;2070418;28;20217;-68
2023/02/20 12:21:16;;;;;;;2.97;1.10;;;;;;;20.74;34.95;97407.81;2062676;28;20205;-68
2023/02/20 12:22:30;;;;;;;3.15;1.20;;;;;;;19.67;35.69;97401.28;2065491;28;20214;-68
2023/02/20 12:23:52;;;;;;;3.67;1.00;;;;;;;19.15;35.35;97392.47;2069343;28;20291;-68
2023/02/20 12:25:10;;;;;;;3.30;1.10;;;;;;;18.33;36.07;97397.78;2070769;28;20226;-68
2023/02/20 12:26:26;;;;;;;3.38;1.00;;;;;;;18.16;36.87;97389.13;2070439;28;20387;-68
2023/02/20 12:27:55;;;;;;;3.78;1.00;;;;;;;19.19;36.68;97407.19;2070065;28;20213;-67
2023/02/20 12:29:19;;;;;;;2.67;0.90;;;;;;;20.62;36.19;97403.38;2067747;28;20237;-65
2023/02/20 12:30:30;;;;;;;4.35;1.00;;;;;;;20.20;36.07;97390.47;2069209;28;20224;-66
2023/02/20 12:31:55;;;;;;;4.65;1.33;;;;;;;21.12;35.18;97398.78;2069815;28;20649;-67
2023/02/20 12:33:08;;;;;;;11.27;1.10;;;;;;;20.50;35.61;97391.88;2071438;28;20198;-66
2023/02/20 12:34:40;;;;;;;4.15;1.15;;;;;;;19.39;36.04;97398.72;2070773;28;20756;-66
2023/02/20 12:36:00;;;;;;;2.20;1.13;;;;;;;19.30;36.13;97401.16;2063022;28;20244;-65
2023/02/20 12:37:15;;;;;;;2.83;1.10;;;;;;;20.28;35.93;97401.41;2071131;28;20225;-66
2023/02/20 12:38:53;;;;;;;3.47;1.20;;;;;;;20.85;35.18;97391.94;2069958;28;20253;-66
2023/02/20 12:40:08;;;;;;;2.47;0.93;;;;;;;21.06;34.81;97395.78;2079491;28;20277;-65
2023/02/20 12:41:31;;;;;;;36.15;20.55;;;;;;;20.37;35.23;97392.75;2079621;28;20295;-66
2023/02/20 12:42:53;;;;;;;8.27;2.00;;;;;;;21.27;35.05;97380.84;2080037;28;20220;-65
2023/02/20 12:44:32;;;;;;;4.80;1.00;;;;;;;21.30;33.73;97385.09;2076827;28;20311;-66
2023/02/20 12:45:40;;;;;;;3.22;1.08;;;;;;;20.57;34.24;97382.53;2079773;28;20204;-65
2023/02/20 12:47:00;;;;;;;2.90;1.08;;;;;;;20.82;34.67;97380.72;2079612;28;20208;-66
2023/02/20 12:48:50;;;;;;;1.90;0.93;;;;;;;20.44;33.94;97381.72;2078355;28;20237;-65
2023/02/20 12:50:01;;;;;;;2.90;0.90;;;;;;;20.49;34.08;97374.25;2068556;28;20376;-66
2023/02/20 12:51:14;;;;;;;2.00;1.00;;;;;;;20.02;34.24;97364.38;2076097;28;20208;-66
2023/02/20 12:52:30;;;;;;;12.70;1.70;;;;;;;19.80;34.56;97372.13;2076465;28;20201;-65
2023/02/20 12:54:12;;;;;;;2.60;0.80;;;;;;;18.76;34.72;97366.72;2077246;28;20695;-66
2023/02/20 12:55:49;;;;;;;5.03;1.30;;;;;;;18.66;35.20;97357.69;2079334;28;20227;-65
2023/02/20 12:57:24;;;;;;;3.70;1.10;;;;;;;19.14;35.12;97362.47;2079722;28;20197;-65
2023/02/20 12:58:40;;;;;;;10.73;2.03;;;;;;;19.04;34.55;97356.97;2079370;28;20225;-65
2023/02/20 12:59:58;;;;;;;6.78;1.20;;;;;;;19.28;35.43;97350.13;2070021;28;20209;-65
2023/02/20 13:01:04;;;;;;;5.65;1.20;;;;;;;19.83;34.76;97346.28;2070646;28;20209;-65
2023/02/20 13:02:19;;;;;;;7.10;1.65;;;;;;;19.75;34.33;97330.03;2070553;28;20221;-65
2023/02/20 13:03:30;;;;;;;2.97;0.95;;;;;;;20.09;34.08;97337.38;2070819;28;20205;-65
2023/02/20 13:04:44;;;;;;;2.55;1.00;;;;;;;19.80;34.09;97340.31;2069919;28;20221;-65
2023/02/20 13:05:47;;;;;;;5.28;0.88;;;;;;;19.92;33.96;97328.84;2071161;28;20255;-65
2023/02/20 13:06:49;;;;;;;3.40;0.80;;;;;;;19.85;33.36;97335.56;2070328;28;20198;-65
2023/02/20 13:07:53;;;;;;;2.70;0.80;;;;;;;19.82;34.41;97341.03;2069666;28;20638;-65
2023/02/20 13:09:16;;;;;;;3.78;0.80;;;;;;;19.31;34.24;97339.31;2070026;28;20195;-65
2023/02/20 13:10:30;;;;;;;4.80;1.00;;;;;;;19.08;34.70;97332.00;2069844;28;20293;-65
2023/02/20 13:11:39;;;;;;;5.78;0.90;;;;;;;18.85;35.13;97327.38;2070068;28;20206;-65
2023/02/20 13:12:41;;;;;;;1.77;0.70;;;;;;;19.10;34.92;97329.25;2071044;28;20198;-65
2023/02/20 13:13:56;;;;;;;2.10;0.88;;;;;;;19.89;34.64;97315.84;2069266;28;20229;-64
2023/02/20 13:15:03;;;;;;;3.22;0.95;;;;;;;19.91;33.54;97311.28;2070032;28;20241;-66
2023/02/20 13:16:31;;;;;;;1.55;1.00;;;;;;;20.32;33.26;97310.06;2071690;28;20771;-65
2023/02/20 13:17:45;;;;;;;8.00;1.13;;;;;;;20.27;33.54;97303.41;2068562;28;20638;-65
2023/02/20 13:18:58;;;;;;;3.53;0.95;;;;;;;20.69;33.29;97304.66;2069541;28;20672;-65
2023/02/20 13:20:10;;;;;;;5.47;0.80;;;;;;;20.05;33.38;97305.81;2070066;28;20557;-65
2023/02/20 13:21:15;;;;;;;1.25;0.70;;;;;;;19.66;33.47;97299.75;2070648;28;20197;-65
2023/02/20 13:22:17;;;;;;;3.13;0.90;;;;;;;19.78;33.23;97310.44;2071060;28;20205;-65
2023/02/20 13:23:18;;;;;;;1.92;0.70;;;;;;;20.13;33.27;97299.13;2071688;28;20620;-65
2023/02/20 13:24:20;;;;;;;1.95;0.70;;;;;;;19.90;33.05;97304.28;2070695;28;20252;-67
2023/02/20 13:25:30;;;;;;;1.58;0.80;;;;;;;19.97;33.68;97296.72;2072618;28;20201;-66
2023/02/20 13:26:32;;;;;;;5.28;1.55;;;;;;;19.92;33.59;97294.41;2071070;28;20197;-66
2023/02/20 13:27:34;;;;;;;5.18;1.13;;;;;;;20.14;33.23;97290.22;2071953;28;20225;-65
2023/02/20 13:28:43;;;;;;;4.13;0.85;;;;;;;20.09;32.82;97287.03;2071362;28;20194;-65
2023/02/20 13:30:09;;;;;;;2.15;0.73;;;;;;;18.70;33.05;97287.81;2069835;28;20614;-66
2023/02/20 13:31:17;;;;;;;1.50;0.68;;;;;;;18.29;33.16;97283.47;2070725;28;20764;-65
2023/02/20 13:32:27;;;;;;;1.75;0.80;;;;;;;17.85;33.89;97288.03;2072346;28;20201;-65
2023/02/20 13:33:28;;;;;;;1.45;0.63;;;;;;;17.85;34.16;97281.88;2065458;28;20292;-65
2023/02/20 13:34:38;;;;;;;6.85;0.88;;;;;;;18.41;34.33;97284.44;2067960;28;20218;-66
2023/02/20 13:35:40;;;;;;;2.25;0.85;;;;;;;18.66;34.02;97288.09;2071216;28;20194;-65
2023/02/20 13:36:42;;;;;;;4.60;0.80;;;;;;;18.67;34.11;97276.56;2070722;28;20196;-65
2023/02/20 13:37:52;;;;;;;3.40;0.90;;;;;;;18.77;33.54;97286.41;2070422;28;20205;-65
2023/02/20 13:39:20;;;;;;;3.05;1.10;;;;;;;18.75;33.39;97285.69;2071261;28;20217;-65
2023/02/20 13:40:27;;;;;;;2.08;0.77;;;;;;;19.13;33.12;97283.19;2065290;28;20198;-66
2023/02/20 13:41:54;;;;;;;2.95;0.80;;;;;;;18.98;33.43;97277.16;2069333;28;20194;-66
2023/02/20 13:43:11;;;;;;;2.88;0.80;;;;;;;17.78;33.17;97279.63;2072516;28;20535;-65
2023/02/20 13:44:37;;;;;;;3.38;0.80;;;;;;;18.53;33.53;97282.78;2071805;28;20668;-66
2023/02/20 13:45:41;;;;;;;2.10;0.80;;;;;;;19.15;32.85;97271.53;2072644;28;20205;-66
2023/02/20 13:46:56;;;;;;;1.17;0.60;;;;;;;19.27;32.67;97276.94;2071867;28;20308;-67
2023/02/20 13:48:27;;;;;;;3.33;0.80;;;;;;;18.85;32.20;97274.47;2070831;28;21069;-66
2023/02/20 13:49:51;;;;;;;2.25;0.82;;;;;;;17.97;33.39;97267.91;2071145;28;20228;-67
2023/02/20 13:51:15;;;;;;;4.20;0.82;;;;;;;18.65;33.03;97273.19;2070236;28;20204;-66
2023/02/20 13:52:41;;;;;;;5.40;0.90;;;;;;;20.00;32.62;97262.06;2070524;28;20590;-66
2023/02/20 13:53:46;;;;;;;3.60;1.25;;;;;;;20.32;31.87;97261.47;2069568;28;20276;-65
2023/02/20 13:54:48;;;;;;;3.08;1.25;;;;;;;20.01;31.95;97263.72;2072073;28;20205;-67
2023/02/20 13:55:49;;;;;;;2.13;0.70;;;;;;;18.83;32.82;97265.78;2070750;28;20274;-66
2023/02/20 13:56:58;;;;;;;2.80;1.05;;;;;;;18.88;33.43;97269.81;2070581;28;20280;-65
2023/02/20 13:58:14;;;;;;;6.53;3.50;;;;;;;19.47;33.03;97257.00;2074374;28;20202;-71
2023/02/20 13:59:18;;;;;;;11.63;5.95;;;;;;;19.32;33.13;97264.22;2071283;28;20225;-67
2023/02/20 14:00:23;;;;;;;4.72;2.28;;;;;;;19.32;33.15;97250.97;2071491;28;20213;-66
2023/02/20 14:01:24;;;;;;;8.32;2.30;;;;;;;19.58;33.07;97263.22;2072356;28;20773;-68
2023/02/20 14:02:29;;;;;;;3.53;1.00;;;;;;;19.74;32.99;97268.28;2070982;28;20264;-68
2023/02/20 14:03:33;;;;;;;3.00;0.63;;;;;;;19.79;33.09;97267.09;2071723;28;20232;-69
2023/02/20 14:04:34;;;;;;;2.22;0.82;;;;;;;19.51;33.35;97263.75;2071826;28;20601;-69
2023/02/20 14:05:36;;;;;;;2.58;0.80;;;;;;;20.08;33.42;97274.75;2071998;28;20204;-69